Tomato, Arkansas
Current Conditions -  °F | °C
As of 3:53 AM on Friday 28 Nov 2014 (Local Time) from KHKA Reporting Station
Clear Clear  
Wind Chill: 31°   Ceiling: Unl
Heat Index: 38°   Visibility: 10mi
Dew Point: 26°   Wind: 10mph
Humidity: 62%   Direction: 160°SSE
Pressure: 30.4"   Gusts: NA
Location:  35.84°N, 89.74°W
Report Text: KHKA 280953Z AUTO 16009KT 10SM CLR 03/M03 A3040 RMK AO2 SLP295 T00331033 $
Loading
Personal Weather Stations






























Interactive Weather Map New forecast layout! Learn more

10-Day Weather Forecast

Advertisements
Track Severe Weather on mobile